Time;durP1;ratioP1;P1;durP2;ratioP2;P2;SDS_P1;SDS_P2;PMS_P1;PMS_P2;Temp;Humidity;BMP_temperature;BMP_pressure;BME280_temperature;BME280_humidity;BME280_pressure;Samples;Min_cycle;Max_cycle;Signal;HPM_P1;HPM_P2
2022/10/27 00:01:05;;;;;;;6.47;4.45;;;;;;;;;;5042262;28;20710;-53
2022/10/27 00:03:31;;;;;;;6.47;4.43;;;;;;;;;;5040910;28;20251;-53
2022/10/27 00:06:03;;;;;;;4.13;3.53;;;;;;;;;;5041618;28;20736;-54
2022/10/27 00:08:30;;;;;;;3.72;3.40;;;;;;;;;;5043333;28;20634;-54
2022/10/27 00:10:57;;;;;;;4.95;3.95;;;;;;;;;;5044213;28;20232;-52
2022/10/27 00:13:24;;;;;;;4.63;3.95;;;;;;;;;;5042393;28;20262;-53
2022/10/27 00:15:55;;;;;;;3.63;3.33;;;;;;;;;;5036479;28;20236;-53
2022/10/27 00:18:21;;;;;;;4.85;3.65;;;;;;;;;;5033465;28;20232;-53
2022/10/27 00:20:56;;;;;;;3.67;3.38;;;;;;;;;;5042412;28;20231;-53
2022/10/27 00:23:22;;;;;;;4.47;3.92;;;;;;;;;;5039786;28;20235;-53
2022/10/27 00:25:53;;;;;;;4.38;3.92;;;;;;;;;;5037255;28;20240;-53
2022/10/27 00:28:19;;;;;;;6.55;4.70;;;;;;;;;;5036712;28;20811;-53
2022/10/27 00:30:45;;;;;;;6.20;3.97;;;;;;;;;;5037177;28;20248;-52
2022/10/27 00:33:12;;;;;;;5.38;4.15;;;;;;;;;;5040751;28;20281;-53
2022/10/27 00:35:38;;;;;;;7.15;4.70;;;;;;;;;;5039744;28;20619;-52
2022/10/27 00:38:04;;;;;;;5.43;4.47;;;;;;;;;;5033550;28;20233;-52
2022/10/27 00:40:35;;;;;;;5.70;4.28;;;;;;;;;;5039724;28;20236;-53
2022/10/27 00:43:03;;;;;;;5.15;4.63;;;;;;;;;;5040770;28;20232;-53
2022/10/27 00:45:29;;;;;;;6.95;4.55;;;;;;;;;;5038812;28;20744;-53
2022/10/27 00:47:55;;;;;;;5.05;4.53;;;;;;;;;;5040167;28;20326;-52
2022/10/27 00:50:23;;;;;;;4.80;4.15;;;;;;;;;;5030414;28;20233;-53
2022/10/27 00:52:51;;;;;;;6.32;4.05;;;;;;;;;;5042548;28;20240;-53
2022/10/27 00:55:20;;;;;;;4.32;3.83;;;;;;;;;;5043407;28;20614;-53
2022/10/27 00:57:48;;;;;;;4.40;3.78;;;;;;;;;;5046245;28;20250;-52
2022/10/27 01:00:16;;;;;;;4.70;4.05;;;;;;;;;;5050419;28;20239;-53
2022/10/27 01:02:43;;;;;;;4.80;3.75;;;;;;;;;;5041600;28;20231;-54
2022/10/27 01:05:11;;;;;;;4.85;4.40;;;;;;;;;;5038434;28;20232;-54
2022/10/27 01:07:38;;;;;;;5.38;4.53;;;;;;;;;;5034774;28;20583;-55
2022/10/27 01:10:05;;;;;;;4.03;3.70;;;;;;;;;;5044004;28;20718;-52
2022/10/27 01:12:32;;;;;;;5.90;4.50;;;;;;;;;;5040768;28;20240;-52
2022/10/27 01:14:58;;;;;;;7.95;4.15;;;;;;;;;;5041509;28;20243;-53
2022/10/27 01:17:33;;;;;;;4.53;4.13;;;;;;;;;;5037782;28;20232;-53
2022/10/27 01:20:12;;;;;;;4.80;4.32;;;;;;;;;;5016168;28;20234;-52
2022/10/27 01:22:43;;;;;;;3.90;3.58;;;;;;;;;;5022188;28;20327;-52
2022/10/27 01:25:23;;;;;;;4.03;3.63;;;;;;;;;;5032805;28;20224;-53
2022/10/27 01:27:56;;;;;;;5.35;4.05;;;;;;;;;;5027459;28;20229;-53
2022/10/27 01:30:23;;;;;;;4.65;4.25;;;;;;;;;;5024781;28;20229;-52
2022/10/27 01:32:57;;;;;;;4.45;4.13;;;;;;;;;;5040105;28;20347;-54
2022/10/27 01:35:27;;;;;;;5.07;4.38;;;;;;;;;;5028210;28;20647;-53
2022/10/27 01:37:58;;;;;;;4.45;3.58;;;;;;;;;;5045768;28;20236;-52
2022/10/27 01:40:27;;;;;;;5.85;4.28;;;;;;;;;;5025489;28;20231;-56
2022/10/27 01:42:57;;;;;;;5.00;4.43;;;;;;;;;;5024111;28;20246;-53
2022/10/27 01:45:26;;;;;;;4.32;3.70;;;;;;;;;;5029412;28;20235;-53
2022/10/27 01:47:55;;;;;;;6.25;5.13;;;;;;;;;;5022014;28;20233;-54
2022/10/27 01:50:26;;;;;;;4.93;4.15;;;;;;;;;;5034653;28;20235;-52
2022/10/27 01:52:53;;;;;;;3.85;3.55;;;;;;;;;;5038729;28;20323;-53
2022/10/27 01:55:25;;;;;;;4.22;3.78;;;;;;;;;;5029637;28;20244;-52
2022/10/27 01:57:59;;;;;;;4.97;3.70;;;;;;;;;;5024119;28;20268;-53
2022/10/27 02:00:26;;;;;;;4.78;4.25;;;;;;;;;;5025485;28;20223;-52
2022/10/27 02:02:57;;;;;;;4.65;4.03;;;;;;;;;;5031712;28;20241;-53
2022/10/27 02:05:27;;;;;;;4.97;4.18;;;;;;;;;;5036724;28;20296;-53
2022/10/27 02:07:58;;;;;;;7.50;4.03;;;;;;;;;;5036542;28;20236;-53
2022/10/27 02:10:26;;;;;;;4.03;3.65;;;;;;;;;;5030574;28;20232;-53
2022/10/27 02:12:53;;;;;;;4.05;3.65;;;;;;;;;;5026657;28;20324;-53
2022/10/27 02:15:26;;;;;;;5.28;3.50;;;;;;;;;;5031206;28;20336;-53
2022/10/27 02:17:57;;;;;;;8.48;4.72;;;;;;;;;;5028875;28;20240;-52
2022/10/27 02:20:26;;;;;;;6.65;4.28;;;;;;;;;;5033400;28;20228;-52
2022/10/27 02:22:54;;;;;;;5.55;4.15;;;;;;;;;;5022454;28;20233;-54
2022/10/27 02:25:23;;;;;;;4.35;3.95;;;;;;;;;;5034769;28;20256;-52
2022/10/27 02:27:52;;;;;;;4.32;3.92;;;;;;;;;;5016569;28;20815;-52
2022/10/27 02:30:19;;;;;;;6.10;5.50;;;;;;;;;;5037872;28;20231;-52
2022/10/27 02:32:46;;;;;;;7.57;4.18;;;;;;;;;;5037223;28;20903;-52
2022/10/27 02:35:16;;;;;;;7.20;5.45;;;;;;;;;;5013507;28;20237;-52
2022/10/27 02:37:43;;;;;;;7.68;5.72;;;;;;;;;;5025589;28;20275;-52
2022/10/27 02:40:10;;;;;;;9.10;5.80;;;;;;;;;;5041436;28;20254;-53
2022/10/27 02:42:36;;;;;;;8.23;5.78;;;;;;;;;;5017096;28;20228;-52
2022/10/27 02:45:03;;;;;;;8.20;6.07;;;;;;;;;;5037640;28;20238;-52
2022/10/27 02:47:30;;;;;;;5.43;4.72;;;;;;;;;;5021774;28;20235;-52
2022/10/27 02:49:56;;;;;;;7.07;5.82;;;;;;;;;;5031474;28;20236;-52
2022/10/27 02:52:24;;;;;;;9.23;5.25;;;;;;;;;;5029587;28;20334;-52
2022/10/27 02:54:50;;;;;;;8.75;5.88;;;;;;;;;;5033022;28;20307;-53
2022/10/27 02:57:17;;;;;;;6.93;5.15;;;;;;;;;;5025212;28;20806;-53
2022/10/27 02:59:44;;;;;;;5.90;4.95;;;;;;;;;;5024426;28;20264;-53
2022/10/27 03:02:10;;;;;;;7.88;5.35;;;;;;;;;;5036820;28;20235;-52
2022/10/27 03:04:37;;;;;;;7.88;5.30;;;;;;;;;;5022911;28;20239;-52
2022/10/27 03:07:03;;;;;;;6.85;5.63;;;;;;;;;;5023324;28;20235;-53
2022/10/27 03:09:31;;;;;;;7.72;5.88;;;;;;;;;;5030767;28;20229;-53
2022/10/27 03:11:58;;;;;;;6.32;5.57;;;;;;;;;;5029361;28;20248;-55
2022/10/27 03:14:24;;;;;;;6.22;4.43;;;;;;;;;;5037157;28;20239;-53
2022/10/27 03:16:51;;;;;;;5.20;4.70;;;;;;;;;;5033381;28;20243;-53
2022/10/27 03:19:17;;;;;;;8.45;5.80;;;;;;;;;;5040380;28;20815;-52
2022/10/27 03:21:44;;;;;;;5.35;4.88;;;;;;;;;;5036132;28;20406;-53
2022/10/27 03:24:10;;;;;;;10.82;5.85;;;;;;;;;;5041880;28;20761;-52
2022/10/27 03:26:39;;;;;;;6.40;5.03;;;;;;;;;;5036740;28;20239;-52
2022/10/27 03:29:05;;;;;;;5.38;4.63;;;;;;;;;;5041506;28;20255;-52
2022/10/27 03:31:32;;;;;;;6.93;5.60;;;;;;;;;;5039601;28;20551;-52
2022/10/27 03:33:58;;;;;;;15.20;6.88;;;;;;;;;;5041621;28;20278;-54
2022/10/27 03:36:24;;;;;;;5.82;5.32;;;;;;;;;;5042392;28;20264;-53
2022/10/27 03:38:53;;;;;;;7.28;5.32;;;;;;;;;;5037890;28;20243;-52
2022/10/27 03:41:19;;;;;;;6.30;5.13;;;;;;;;;;5043173;28;20231;-53
2022/10/27 03:43:47;;;;;;;6.95;6.25;;;;;;;;;;5042977;28;20243;-53
2022/10/27 03:46:13;;;;;;;6.07;5.15;;;;;;;;;;5032758;28;20260;-53
2022/10/27 03:48:40;;;;;;;6.80;6.13;;;;;;;;;;5040633;28;20323;-53
2022/10/27 03:51:06;;;;;;;7.63;6.57;;;;;;;;;;5026852;28;20350;-53
2022/10/27 03:53:32;;;;;;;9.55;5.68;;;;;;;;;;5032743;28;20674;-53
2022/10/27 03:55:59;;;;;;;5.88;5.28;;;;;;;;;;5022018;28;20247;-54
2022/10/27 03:58:25;;;;;;;5.63;5.13;;;;;;;;;;5020457;28;20234;-53
2022/10/27 04:00:53;;;;;;;5.93;5.32;;;;;;;;;;5020786;28;20321;-52
2022/10/27 04:03:19;;;;;;;5.93;5.10;;;;;;;;;;5020422;28;20394;-53
2022/10/27 04:05:48;;;;;;;7.90;6.22;;;;;;;;;;5018277;28;20600;-53
2022/10/27 04:08:15;;;;;;;7.13;4.93;;;;;;;;;;5028849;28;20243;-52
2022/10/27 04:10:41;;;;;;;6.47;5.70;;;;;;;;;;5035620;28;20601;-52
2022/10/27 04:13:08;;;;;;;7.55;5.50;;;;;;;;;;5020018;28;20250;-52
2022/10/27 04:15:34;;;;;;;7.53;6.13;;;;;;;;;;5025168;28;20302;-52
2022/10/27 04:18:02;;;;;;;6.88;5.60;;;;;;;;;;5039186;28;20239;-52
2022/10/27 04:20:28;;;;;;;7.90;6.43;;;;;;;;;;5041824;28;20255;-55
2022/10/27 04:22:55;;;;;;;5.90;5.40;;;;;;;;;;5038161;28;20279;-53
2022/10/27 04:25:21;;;;;;;7.22;5.20;;;;;;;;;;5025490;28;20235;-53
2022/10/27 04:27:48;;;;;;;11.40;5.50;;;;;;;;;;5026263;28;21742;-54
2022/10/27 04:30:15;;;;;;;6.68;5.30;;;;;;;;;;5014008;28;20237;-53
2022/10/27 04:32:41;;;;;;;7.95;5.88;;;;;;;;;;5029126;28;20236;-53
2022/10/27 04:35:09;;;;;;;6.40;5.25;;;;;;;;;;5032949;28;20231;-53
2022/10/27 04:37:36;;;;;;;6.43;5.82;;;;;;;;;;5020555;28;20233;-53
2022/10/27 04:40:02;;;;;;;6.35;5.75;;;;;;;;;;5035046;28;20243;-53
2022/10/27 04:42:29;;;;;;;10.68;6.32;;;;;;;;;;5027734;28;20235;-54
2022/10/27 04:44:55;;;;;;;12.70;6.97;;;;;;;;;;5038572;28;20239;-52
2022/10/27 04:47:22;;;;;;;10.48;6.60;;;;;;;;;;5027737;28;20264;-52
2022/10/27 04:49:48;;;;;;;8.23;6.07;;;;;;;;;;5033987;28;20435;-52
2022/10/27 04:52:16;;;;;;;8.50;6.63;;;;;;;;;;5033755;28;20258;-53
2022/10/27 04:54:43;;;;;;;7.63;5.82;;;;;;;;;;5032603;28;20233;-53
2022/10/27 04:57:12;;;;;;;5.75;5.20;;;;;;;;;;5033738;28;20237;-53
2022/10/27 04:59:39;;;;;;;9.18;6.90;;;;;;;;;;5024286;28;20256;-53
2022/10/27 05:02:05;;;;;;;6.07;5.45;;;;;;;;;;5020400;28;20237;-53
2022/10/27 05:04:32;;;;;;;7.10;6.03;;;;;;;;;;5024139;28;20228;-54
2022/10/27 05:06:58;;;;;;;6.97;6.25;;;;;;;;;;5024856;28;20260;-54
2022/10/27 05:09:26;;;;;;;6.63;5.72;;;;;;;;;;5023188;28;20580;-53
2022/10/27 05:11:53;;;;;;;6.75;5.95;;;;;;;;;;5021224;28;20233;-53
2022/10/27 05:14:19;;;;;;;8.07;6.43;;;;;;;;;;5022420;28;20236;-53
2022/10/27 05:16:45;;;;;;;8.52;6.13;;;;;;;;;;5028878;28;20327;-52
2022/10/27 05:19:12;;;;;;;9.05;6.75;;;;;;;;;;5021079;28;20225;-52
2022/10/27 05:21:38;;;;;;;7.18;6.50;;;;;;;;;;5022254;28;20741;-52
2022/10/27 05:24:05;;;;;;;7.60;5.82;;;;;;;;;;5022050;28;20237;-53
2022/10/27 05:26:33;;;;;;;7.15;5.70;;;;;;;;;;5031258;28;20712;-52
2022/10/27 05:28:59;;;;;;;8.35;5.53;;;;;;;;;;5039934;28;20246;-54
2022/10/27 05:31:26;;;;;;;6.70;6.07;;;;;;;;;;5026926;28;20264;-52
2022/10/27 05:33:52;;;;;;;8.77;6.60;;;;;;;;;;5026424;28;20243;-52
2022/10/27 05:36:19;;;;;;;9.48;6.57;;;;;;;;;;5040329;28;20722;-51
2022/10/27 05:38:45;;;;;;;8.02;6.47;;;;;;;;;;5035140;28;20319;-52
2022/10/27 05:41:12;;;;;;;6.18;5.25;;;;;;;;;;5036095;28;20714;-54
2022/10/27 05:43:40;;;;;;;6.38;5.78;;;;;;;;;;5028831;28;20231;-54
2022/10/27 05:46:07;;;;;;;10.35;6.95;;;;;;;;;;5033574;28;20236;-52
2022/10/27 05:48:33;;;;;;;6.70;6.03;;;;;;;;;;5034494;28;20298;-53
2022/10/27 05:51:00;;;;;;;9.35;6.75;;;;;;;;;;5038325;28;20224;-52
2022/10/27 05:53:27;;;;;;;6.20;5.63;;;;;;;;;;5030221;28;20752;-52
2022/10/27 05:55:53;;;;;;;5.97;5.05;;;;;;;;;;5037601;28;20268;-53
2022/10/27 05:58:20;;;;;;;7.10;5.88;;;;;;;;;;5029182;28;20243;-53
2022/10/27 06:00:48;;;;;;;7.00;6.10;;;;;;;;;;5030386;28;20237;-53
2022/10/27 06:03:18;;;;;;;6.95;6.35;;;;;;;;;;5034879;28;20331;-53
2022/10/27 06:05:44;;;;;;;9.00;6.55;;;;;;;;;;5036923;28;20253;-53
2022/10/27 06:08:11;;;;;;;5.90;5.30;;;;;;;;;;5030621;28;20248;-53
2022/10/27 06:10:37;;;;;;;8.32;5.68;;;;;;;;;;5032714;28;20252;-53
2022/10/27 06:13:05;;;;;;;7.32;5.68;;;;;;;;;;5041649;28;20358;-54
2022/10/27 06:15:31;;;;;;;7.03;6.35;;;;;;;;;;5031929;28;20984;-53
2022/10/27 06:17:59;;;;;;;6.65;5.88;;;;;;;;;;5030078;28;20240;-54
2022/10/27 06:20:26;;;;;;;9.85;6.30;;;;;;;;;;5031387;28;20872;-54
2022/10/27 06:22:52;;;;;;;6.78;6.18;;;;;;;;;;5035420;28;20254;-53
2022/10/27 06:25:19;;;;;;;12.20;6.07;;;;;;;;;;5031561;28;20234;-53
2022/10/27 06:27:45;;;;;;;8.75;6.40;;;;;;;;;;5027703;28;20260;-53
2022/10/27 06:30:12;;;;;;;6.30;5.65;;;;;;;;;;5020885;28;20243;-53
2022/10/27 06:32:39;;;;;;;6.82;6.22;;;;;;;;;;5028336;28;20311;-53
2022/10/27 06:35:07;;;;;;;6.35;5.82;;;;;;;;;;5033305;28;20229;-53
2022/10/27 06:37:37;;;;;;;10.68;6.63;;;;;;;;;;5020069;28;20237;-53
2022/10/27 06:40:03;;;;;;;12.23;6.38;;;;;;;;;;5017406;28;20233;-54
2022/10/27 06:42:30;;;;;;;7.72;5.50;;;;;;;;;;5031252;28;20263;-53
2022/10/27 06:44:56;;;;;;;6.13;5.50;;;;;;;;;;5033462;28;20223;-53
2022/10/27 06:47:23;;;;;;;6.80;6.10;;;;;;;;;;5026242;28;20251;-53
2022/10/27 06:49:49;;;;;;;11.73;6.50;;;;;;;;;;5026987;28;20662;-53
2022/10/27 06:52:17;;;;;;;9.38;7.22;;;;;;;;;;5029934;28;20232;-53
2022/10/27 06:54:44;;;;;;;8.40;5.97;;;;;;;;;;5030343;28;20813;-52
2022/10/27 06:57:10;;;;;;;7.43;6.07;;;;;;;;;;5032106;28;20310;-54
2022/10/27 06:59:36;;;;;;;7.10;6.40;;;;;;;;;;5031227;28;20236;-54
2022/10/27 07:02:03;;;;;;;10.80;6.60;;;;;;;;;;5030698;28;20323;-52
2022/10/27 07:04:30;;;;;;;7.25;5.88;;;;;;;;;;5025218;28;20268;-55
2022/10/27 07:06:57;;;;;;;8.70;5.70;;;;;;;;;;5038081;28;20315;-53
2022/10/27 07:09:25;;;;;;;8.23;5.75;;;;;;;;;;5042625;28;20276;-53
2022/10/27 07:11:51;;;;;;;7.13;6.35;;;;;;;;;;5041484;28;20338;-53
2022/10/27 07:14:18;;;;;;;12.30;7.07;;;;;;;;;;5041673;28;20248;-54
2022/10/27 07:16:44;;;;;;;7.88;7.05;;;;;;;;;;5041098;28;20228;-53
2022/10/27 07:19:10;;;;;;;9.70;6.80;;;;;;;;;;5041872;28;20745;-54
2022/10/27 07:21:37;;;;;;;7.15;6.45;;;;;;;;;;5041775;28;20224;-53
2022/10/27 07:24:03;;;;;;;10.10;6.43;;;;;;;;;;5041653;28;20610;-53
2022/10/27 07:26:31;;;;;;;13.88;6.63;;;;;;;;;;5042094;28;20232;-55
2022/10/27 07:28:58;;;;;;;7.40;6.70;;;;;;;;;;5043986;28;20247;-53
2022/10/27 07:31:24;;;;;;;8.70;6.70;;;;;;;;;;5030029;28;20330;-53
2022/10/27 07:33:51;;;;;;;9.35;6.10;;;;;;;;;;5035504;28;20251;-53
2022/10/27 07:36:17;;;;;;;9.50;6.75;;;;;;;;;;5029475;28;20693;-53
2022/10/27 07:38:44;;;;;;;7.13;6.20;;;;;;;;;;5029912;28;20236;-53
2022/10/27 07:41:10;;;;;;;10.63;6.28;;;;;;;;;;5033988;28;20232;-54
2022/10/27 07:43:38;;;;;;;7.15;6.45;;;;;;;;;;5024021;28;20235;-52
2022/10/27 07:46:05;;;;;;;8.60;5.90;;;;;;;;;;5038163;28;20239;-52
2022/10/27 07:48:31;;;;;;;9.70;6.00;;;;;;;;;;5039768;28;20235;-52
2022/10/27 07:50:58;;;;;;;10.55;6.45;;;;;;;;;;5032009;28;20260;-53
2022/10/27 07:53:24;;;;;;;12.60;6.70;;;;;;;;;;5029188;28;20361;-52
2022/10/27 07:55:52;;;;;;;7.90;7.07;;;;;;;;;;5044044;28;20262;-53
2022/10/27 07:58:18;;;;;;;12.15;6.80;;;;;;;;;;5040744;28;20228;-52
2022/10/27 08:00:47;;;;;;;8.02;6.57;;;;;;;;;;5035582;28;20240;-53
2022/10/27 08:03:14;;;;;;;8.00;6.30;;;;;;;;;;5040354;28;20765;-52
2022/10/27 08:05:41;;;;;;;7.35;6.50;;;;;;;;;;5041433;28;20354;-52
2022/10/27 08:08:08;;;;;;;10.55;7.00;;;;;;;;;;5042987;28;20263;-52
2022/10/27 08:10:35;;;;;;;10.05;7.40;;;;;;;;;;5040403;28;20231;-53
2022/10/27 08:13:02;;;;;;;11.32;6.47;;;;;;;;;;5043386;28;20315;-53
2022/10/27 08:15:29;;;;;;;8.80;6.68;;;;;;;;;;5044452;28;20880;-53
2022/10/27 08:17:58;;;;;;;7.70;6.28;;;;;;;;;;5043011;28;20320;-53
2022/10/27 08:20:26;;;;;;;8.93;6.38;;;;;;;;;;5044671;28;20643;-53
2022/10/27 08:22:56;;;;;;;8.65;5.85;;;;;;;;;;5044881;28;20267;-53
2022/10/27 08:25:23;;;;;;;7.15;6.05;;;;;;;;;;5037362;28;20224;-53
2022/10/27 08:27:50;;;;;;;9.75;4.55;;;;;;;;;;5026540;28;20251;-53
2022/10/27 08:30:16;;;;;;;6.20;5.60;;;;;;;;;;5030694;28;20232;-53
2022/10/27 08:32:43;;;;;;;8.02;6.05;;;;;;;;;;5034130;28;20789;-53
2022/10/27 08:35:11;;;;;;;6.30;5.68;;;;;;;;;;5048126;28;20247;-53
2022/10/27 08:37:37;;;;;;;9.35;5.68;;;;;;;;;;5033595;28;20236;-53
2022/10/27 08:40:04;;;;;;;10.02;5.90;;;;;;;;;;5036698;28;20332;-53
2022/10/27 08:42:36;;;;;;;7.22;6.47;;;;;;;;;;5026538;28;20228;-53
2022/10/27 08:45:05;;;;;;;9.40;6.32;;;;;;;;;;5035356;28;20238;-53
2022/10/27 08:47:31;;;;;;;6.40;5.80;;;;;;;;;;5039630;28;20224;-53
2022/10/27 08:50:01;;;;;;;7.82;5.63;;;;;;;;;;5039783;28;20239;-53
2022/10/27 08:52:32;;;;;;;8.40;7.05;;;;;;;;;;5022067;28;20437;-53
2022/10/27 08:55:00;;;;;;;6.90;5.40;;;;;;;;;;5039318;28;20232;-53
2022/10/27 08:57:27;;;;;;;9.93;8.02;;;;;;;;;;5021702;28;20286;-52
2022/10/27 08:59:54;;;;;;;8.98;8.05;;;;;;;;;;5032630;28;20235;-53
2022/10/27 09:02:27;;;;;;;10.10;8.13;;;;;;;;;;5024314;28;20654;-53
2022/10/27 09:04:58;;;;;;;16.10;14.50;;;;;;;;;;5036823;28;20232;-53
2022/10/27 09:07:28;;;;;;;16.60;12.48;;;;;;;;;;5036695;28;20495;-52
2022/10/27 09:09:57;;;;;;;18.23;16.13;;;;;;;;;;5038608;28;20826;-52
2022/10/27 09:12:31;;;;;;;15.07;13.35;;;;;;;;;;5034736;28;20362;-53
2022/10/27 09:15:12;;;;;;;12.25;9.90;;;;;;;;;;5028490;28;20239;-53
2022/10/27 09:17:41;;;;;;;9.30;8.40;;;;;;;;;;5035491;28;20236;-53
2022/10/27 09:20:08;;;;;;;9.38;8.48;;;;;;;;;;5030700;28;20237;-54
2022/10/27 09:22:36;;;;;;;10.23;8.45;;;;;;;;;;5033941;28;20615;-53
2022/10/27 09:25:05;;;;;;;7.18;6.57;;;;;;;;;;5036879;28;20237;-53
2022/10/27 09:27:32;;;;;;;6.97;6.28;;;;;;;;;;5023361;28;20316;-53
2022/10/27 09:30:00;;;;;;;13.82;6.65;;;;;;;;;;5032285;28;20240;-53
2022/10/27 09:32:26;;;;;;;7.78;5.53;;;;;;;;;;5035803;28;20239;-53
2022/10/27 09:34:55;;;;;;;7.82;4.65;;;;;;;;;;5026467;28;20610;-54
2022/10/27 09:37:22;;;;;;;6.65;4.22;;;;;;;;;;5022936;28;20307;-53
2022/10/27 09:39:49;;;;;;;5.72;4.22;;;;;;;;;;5024364;28;20235;-52
2022/10/27 09:42:17;;;;;;;4.70;3.90;;;;;;;;;;5037390;28;20236;-52
2022/10/27 09:46:45;;;;;;;4.40;4.00;;;;;;;16.22;100.00;102107.00;5054254;27;21097;-52
2022/10/27 09:49:12;;;;;;;5.30;4.80;;;;;;;16.26;100.00;102122.91;5060962;28;20223;-52
2022/10/27 09:51:43;;;;;;;13.18;7.35;;;;;;;16.35;100.00;102114.91;5067122;28;20238;-52
2022/10/27 09:54:28;;;;;;;8.30;5.63;;;;;;;16.41;100.00;102114.91;5053723;28;20255;-52
2022/10/27 09:56:55;;;;;;;9.93;5.90;;;;;;;16.39;100.00;102119.31;5049274;28;20238;-52
2022/10/27 09:59:23;;;;;;;10.48;5.20;;;;;;;16.42;100.00;102119.31;5045749;28;20288;-52
2022/10/27 10:01:56;;;;;;;6.90;6.30;;;;;;;16.46;100.00;102114.00;5044891;28;20228;-53
2022/10/27 10:04:23;;;;;;;8.40;5.45;;;;;;;16.56;100.00;102104.22;5046642;28;20227;-53
2022/10/27 10:06:54;;;;;;;5.40;4.00;;;;;;;16.68;100.00;102098.00;5056229;28;20226;-51
2022/10/27 10:09:26;;;;;;;5.03;4.10;;;;;;;16.80;100.00;102105.06;5056371;28;20320;-51
2022/10/27 10:12:12;;;;;;;7.22;4.50;;;;;;;16.96;100.00;102106.75;5051566;28;20224;-51
2022/10/27 10:14:38;;;;;;;4.88;3.17;;;;;;;17.03;100.00;102116.44;5061971;28;20310;-53
2022/10/27 10:17:18;;;;;;;7.50;3.60;;;;;;;17.13;100.00;102115.50;5055739;28;20717;-53
2022/10/27 10:19:46;;;;;;;4.25;2.92;;;;;;;17.17;100.00;102111.94;5048736;28;20610;-53
2022/10/27 10:22:20;;;;;;;4.70;3.20;;;;;;;17.21;100.00;102114.56;5048741;28;20249;-51
2022/10/27 10:24:47;;;;;;;9.15;3.38;;;;;;;17.27;100.00;102110.09;5054198;28;20239;-52
2022/10/27 10:27:24;;;;;;;3.72;2.17;;;;;;;17.31;100.00;102116.28;5046493;28;20329;-53
2022/10/27 10:29:51;;;;;;;4.07;2.88;;;;;;;17.33;100.00;102107.38;5050439;28;20245;-52
2022/10/27 10:32:22;;;;;;;2.88;2.67;;;;;;;17.34;100.00;102111.81;5041494;28;20235;-53
2022/10/27 10:34:51;;;;;;;5.00;3.30;;;;;;;17.32;100.00;102110.94;5065799;28;20220;-52
2022/10/27 10:37:30;;;;;;;3.92;2.97;;;;;;;17.29;100.00;102103.00;5050763;28;20230;-52
2022/10/27 10:40:09;;;;;;;4.97;3.85;;;;;;;17.32;100.00;102108.28;5037729;28;20311;-52
2022/10/27 10:42:36;;;;;;;4.22;2.80;;;;;;;17.38;100.00;102110.91;5048417;28;20240;-53
2022/10/27 10:45:09;;;;;;;4.57;3.75;;;;;;;17.48;100.00;102111.72;5050013;28;20251;-52
2022/10/27 10:47:37;;;;;;;6.13;4.00;;;;;;;17.60;100.00;102105.44;5058941;28;20282;-52
2022/10/27 10:50:11;;;;;;;5.40;3.28;;;;;;;17.76;100.00;102106.19;5056684;28;20247;-52
2022/10/27 10:52:38;;;;;;;8.95;3.47;;;;;;;18.01;100.00;102102.44;5039486;28;20242;-53
2022/10/27 10:55:07;;;;;;;9.90;3.70;;;;;;;18.07;100.00;102112.97;5051327;28;20227;-53
2022/10/27 10:57:36;;;;;;;4.82;3.50;;;;;;;18.08;100.00;102105.91;5038341;28;20282;-51
2022/10/27 11:00:05;;;;;;;9.18;3.03;;;;;;;18.19;98.46;102112.00;5046636;28;20698;-51
2022/10/27 11:02:33;;;;;;;4.85;3.45;;;;;;;18.24;98.60;102104.84;5033030;28;20602;-52
2022/10/27 11:05:12;;;;;;;4.75;2.97;;;;;;;18.34;96.85;102108.28;5046942;28;20978;-52
2022/10/27 11:07:39;;;;;;;6.82;3.00;;;;;;;18.33;97.43;102107.41;5040437;28;20239;-52
2022/10/27 11:10:10;;;;;;;7.65;3.03;;;;;;;18.38;96.94;102102.03;5045532;28;20247;-53
2022/10/27 11:12:39;;;;;;;6.40;3.22;;;;;;;18.38;96.66;102102.03;5035491;28;20244;-52
2022/10/27 11:15:13;;;;;;;11.32;3.45;;;;;;;18.34;96.49;102100.31;5028887;28;20233;-52
2022/10/27 11:17:40;;;;;;;5.55;2.58;;;;;;;18.40;96.15;102099.38;5034596;28;20235;-52
2022/10/27 11:20:16;;;;;;;2.38;2.17;;;;;;;18.28;97.89;102089.72;5036708;28;20239;-53
2022/10/27 11:22:43;;;;;;;3.08;2.80;;;;;;;18.38;98.32;102090.50;5028465;28;20248;-51
2022/10/27 11:25:16;;;;;;;4.60;2.58;;;;;;;18.33;97.30;102087.91;5042068;28;20721;-53
2022/10/27 11:27:48;;;;;;;4.88;2.33;;;;;;;18.40;96.51;102094.06;5036809;28;21161;-55
2022/10/27 11:30:20;;;;;;;5.47;3.10;;;;;;;18.44;95.76;102080.69;5030473;28;20445;-53
2022/10/27 11:32:51;;;;;;;3.38;2.55;;;;;;;18.50;96.52;102079.75;5033978;28;20259;-53
2022/10/27 11:35:24;;;;;;;7.40;2.72;;;;;;;18.51;95.31;102077.06;5038044;28;20235;-54
2022/10/27 11:37:55;;;;;;;6.22;2.92;;;;;;;18.71;92.85;102081.22;5023972;28;20243;-52
2022/10/27 11:40:26;;;;;;;3.05;2.38;;;;;;;18.73;92.41;102087.44;5028511;28;20244;-53
2022/10/27 11:42:56;;;;;;;2.60;2.40;;;;;;;18.73;92.01;102087.44;5026792;28;20239;-53
2022/10/27 11:45:26;;;;;;;2.85;2.38;;;;;;;18.66;92.21;102080.41;5040036;28;20247;-51
2022/10/27 11:47:57;;;;;;;5.03;2.58;;;;;;;18.75;91.33;102089.19;5038257;28;20231;-51
2022/10/27 11:50:29;;;;;;;6.95;2.45;;;;;;;18.73;92.10;102084.78;5027169;28;20600;-53
2022/10/27 11:52:57;;;;;;;6.30;2.20;;;;;;;18.73;91.79;102074.16;5037192;28;20232;-52
2022/10/27 11:55:27;;;;;;;4.13;2.40;;;;;;;18.67;91.93;102076.84;5043622;28;20728;-52
2022/10/27 11:57:58;;;;;;;3.83;1.88;;;;;;;18.73;92.50;102079.47;5038830;28;20243;-52
2022/10/27 12:00:26;;;;;;;7.50;2.47;;;;;;;18.77;92.38;102073.19;5031176;28;20234;-52
2022/10/27 12:03:34;;;;;;;3.85;2.40;;;;;;;18.76;92.02;102079.44;5039089;28;20250;-51
2022/10/27 12:06:06;;;;;;;6.82;2.10;;;;;;;18.77;93.43;102073.19;5016998;28;20260;-52
2022/10/27 12:08:45;;;;;;;2.33;1.70;;;;;;;18.77;92.17;102078.53;5036243;28;20255;-52
2022/10/27 12:11:19;;;;;;;4.82;2.20;;;;;;;18.89;90.06;102077.50;5032314;28;20232;-53
2022/10/27 12:13:53;;;;;;;2.67;1.70;;;;;;;18.89;90.94;102070.38;5031481;28;20239;-53
2022/10/27 12:16:27;;;;;;;5.18;2.42;;;;;;;18.93;90.88;102074.75;5030195;28;20220;-52
2022/10/27 12:18:57;;;;;;;3.83;2.45;;;;;;;18.97;90.02;102067.59;5027943;28;20236;-52
2022/10/27 12:21:27;;;;;;;4.93;2.80;;;;;;;19.09;88.96;102064.75;5037519;28;20243;-52
2022/10/27 12:23:57;;;;;;;8.27;2.58;;;;;;;19.16;88.43;102061.09;5039109;28;20809;-52
2022/10/27 12:26:27;;;;;;;3.47;2.22;;;;;;;19.16;89.21;102065.53;5039104;28;20830;-52
2022/10/27 12:28:54;;;;;;;5.60;2.22;;;;;;;19.19;89.18;102063.72;5030611;28;20237;-51
2022/10/27 12:31:25;;;;;;;2.60;2.03;;;;;;;19.17;89.01;102064.66;5035384;28;20239;-52
2022/10/27 12:33:54;;;;;;;3.15;2.28;;;;;;;19.16;89.28;102063.75;5044928;28;20245;-51
2022/10/27 12:36:25;;;;;;;5.25;2.28;;;;;;;19.30;88.04;102060.88;5031482;28;20246;-54
2022/10/27 12:38:58;;;;;;;4.30;2.17;;;;;;;19.36;87.45;102059.91;5017765;28;20394;-53
2022/10/27 12:41:29;;;;;;;5.25;2.60;;;;;;;19.28;88.91;102060.03;5024755;28;20225;-53
2022/10/27 12:44:04;;;;;;;4.20;2.03;;;;;;;19.16;90.55;102054.88;5047659;28;20644;-52
2022/10/27 12:46:40;;;;;;;4.60;2.70;;;;;;;19.17;90.59;102052.22;5043282;28;20224;-55
2022/10/27 12:49:12;;;;;;;3.72;2.70;;;;;;;19.22;88.63;102049.47;5035435;28;20232;-53
2022/10/27 12:51:47;;;;;;;2.17;1.90;;;;;;;19.22;88.69;102050.34;5035214;28;20232;-51
2022/10/27 12:54:28;;;;;;;4.43;2.88;;;;;;;19.13;89.75;102052.28;5046409;28;20227;-52
2022/10/27 12:57:00;;;;;;;4.68;2.47;;;;;;;19.14;89.29;102049.59;5041052;28;20232;-52
2022/10/27 12:59:30;;;;;;;3.25;2.60;;;;;;;19.19;88.59;102044.19;5046596;28;20226;-53
2022/10/27 13:01:58;;;;;;;8.05;2.20;;;;;;;19.19;88.49;102038.88;5043658;28;20225;-54
2022/10/27 13:04:51;;;;;;;3.30;2.25;;;;;;;19.17;88.57;102036.25;5047353;28;20235;-52
2022/10/27 13:07:41;;;;;;;2.97;2.22;;;;;;;19.16;88.56;102028.25;5032491;28;20228;-51
2022/10/27 13:10:19;;;;;;;3.22;2.08;;;;;;;19.20;88.67;102025.56;5012145;28;20230;-52
2022/10/27 13:12:56;;;;;;;4.07;2.58;;;;;;;19.15;87.72;102026.50;5044995;28;20646;-52
2022/10/27 13:15:51;;;;;;;4.70;2.13;;;;;;;19.28;86.34;102022.75;5045201;28;20675;-52
2022/10/27 13:18:45;;;;;;;7.60;3.25;;;;;;;19.40;84.56;102033.19;5028865;28;20231;-51
2022/10/27 13:21:16;;;;;;;4.45;2.13;;;;;;;19.42;83.86;102034.06;5037086;28;20645;-54
2022/10/27 13:23:47;;;;;;;8.93;2.38;;;;;;;19.36;82.78;102025.28;5038836;28;20228;-53
2022/10/27 13:26:22;;;;;;;4.10;2.03;;;;;;;19.38;82.38;102016.38;5035454;28;20237;-52
2022/10/27 13:28:52;;;;;;;5.70;2.72;;;;;;;19.41;82.64;102013.66;5040696;28;20227;-52
2022/10/27 13:31:22;;;;;;;2.75;2.30;;;;;;;19.34;83.95;102012.00;5039943;28;20732;-52
2022/10/27 13:34:04;;;;;;;3.35;2.40;;;;;;;19.26;84.93;102009.44;5039050;28;20240;-52
2022/10/27 13:36:30;;;;;;;2.95;2.05;;;;;;;19.18;85.55;102011.38;5028972;28;20232;-52
2022/10/27 13:39:34;;;;;;;2.85;2.10;;;;;;;19.25;83.10;102006.81;5042841;28;20297;-52
2022/10/27 13:42:15;;;;;;;4.25;2.30;;;;;;;19.33;82.49;102006.69;5021041;28;20231;-53
2022/10/27 13:44:42;;;;;;;7.80;2.80;;;;;;;19.37;82.32;102006.59;5038730;28;20228;-53
2022/10/27 13:47:19;;;;;;;4.03;2.25;;;;;;;19.33;82.88;102009.34;5043492;28;20242;-52